Time;durP1;ratioP1;P1;durP2;ratioP2;P2;SDS_P1;SDS_P2;PMS_P1;PMS_P2;Temp;Humidity;BMP_temperature;BMP_pressure;BME280_temperature;BME280_humidity;BME280_pressure;Samples;Min_cycle;Max_cycle;Signal;HPM_P1;HPM_P2
2023/01/01 00:01:08;;;;;;;0.63;0.63;;;;;;;4.30;100.00;100924.25;5054135;28;20564;-61
2023/01/01 00:03:35;;;;;;;0.60;0.60;;;;;;;4.27;100.00;100919.06;5053375;28;20236;-61
2023/01/01 00:06:05;;;;;;;0.50;0.50;;;;;;;4.35;100.00;100922.63;5053830;28;20200;-61
2023/01/01 00:08:34;;;;;;;0.70;0.70;;;;;;;4.30;100.00;100921.69;5053764;28;20228;-61
2023/01/01 00:11:01;;;;;;;0.90;0.90;;;;;;;4.30;100.00;100924.25;5052686;28;20251;-61
2023/01/01 00:13:28;;;;;;;0.50;0.50;;;;;;;4.19;100.00;100927.41;5053587;28;20203;-62
2023/01/01 00:15:55;;;;;;;1.13;1.13;;;;;;;4.14;100.00;100929.00;5053310;28;20557;-61
2023/01/01 00:18:22;;;;;;;0.70;0.70;;;;;;;3.94;100.00;100912.50;5053382;28;20196;-62
2023/01/01 00:20:49;;;;;;;1.00;1.00;;;;;;;3.97;100.00;100930.34;5053227;28;20200;-61
2023/01/01 00:23:15;;;;;;;0.80;0.80;;;;;;;3.98;100.00;100932.03;5047868;28;20240;-61
2023/01/01 00:25:44;;;;;;;0.53;0.53;;;;;;;4.03;100.00;100935.53;5053006;28;20262;-61
2023/01/01 00:28:11;;;;;;;0.80;0.80;;;;;;;4.05;100.00;100943.16;5052985;28;20223;-61
2023/01/01 00:30:40;;;;;;;1.43;1.10;;;;;;;4.02;100.00;100938.91;5053678;28;20286;-62
2023/01/01 00:33:07;;;;;;;1.00;1.00;;;;;;;4.05;100.00;100933.03;5052606;28;20285;-61
2023/01/01 00:35:34;;;;;;;0.50;0.50;;;;;;;4.03;100.00;100943.16;5052986;28;20204;-62
2023/01/01 00:38:00;;;;;;;1.40;1.40;;;;;;;4.03;100.00;100940.63;5052119;28;20247;-62
2023/01/01 00:40:27;;;;;;;1.17;1.17;;;;;;;4.04;100.00;100947.38;5053209;28;20258;-62
2023/01/01 00:42:55;;;;;;;1.27;1.27;;;;;;;4.07;100.00;100941.53;5052451;28;20261;-61
2023/01/01 00:45:22;;;;;;;1.00;1.00;;;;;;;4.10;100.00;100942.44;5052607;28;20205;-62
2023/01/01 00:47:50;;;;;;;0.93;0.93;;;;;;;4.10;100.00;100941.59;5052957;28;20668;-62
2023/01/01 00:50:17;;;;;;;0.67;0.67;;;;;;;4.16;100.00;100942.59;5052860;28;20200;-61
2023/01/01 00:52:43;;;;;;;0.60;0.60;;;;;;;4.16;100.00;100940.03;5052556;28;20688;-62
2023/01/01 00:55:11;;;;;;;0.60;0.60;;;;;;;4.18;100.00;100946.00;5052044;28;20201;-61
2023/01/01 00:57:38;;;;;;;0.50;0.50;;;;;;;4.14;100.00;100939.13;5052965;28;20587;-62
2023/01/01 01:00:08;;;;;;;0.80;0.80;;;;;;;4.22;100.00;100942.69;5052315;28;20627;-61
2023/01/01 01:02:35;;;;;;;0.50;0.50;;;;;;;4.25;100.00;100946.97;5051898;28;20201;-61
2023/01/01 01:05:03;;;;;;;0.47;0.47;;;;;;;4.28;100.00;100953.78;5052368;28;20225;-61
2023/01/01 01:07:34;;;;;;;0.60;0.60;;;;;;;4.30;100.00;100949.63;5052160;28;20196;-61
2023/01/01 01:10:01;;;;;;;0.60;0.60;;;;;;;4.29;100.00;100948.75;5052480;28;20668;-61
2023/01/01 01:12:28;;;;;;;0.67;0.67;;;;;;;4.28;100.00;100952.13;5051998;28;20201;-61
2023/01/01 01:14:54;;;;;;;0.60;0.60;;;;;;;4.30;100.00;100947.91;5052127;28;20683;-61
2023/01/01 01:17:22;;;;;;;0.63;0.63;;;;;;;4.31;100.00;100941.16;5052151;28;20568;-61
2023/01/01 01:19:49;;;;;;;0.60;0.60;;;;;;;4.31;100.00;100941.16;5052136;28;20616;-62
2023/01/01 01:22:16;;;;;;;0.70;0.70;;;;;;;4.30;100.00;100940.28;5052199;28;20593;-61
2023/01/01 01:24:43;;;;;;;0.50;0.50;;;;;;;4.27;100.00;100940.25;5051775;28;20266;-61
2023/01/01 01:27:09;;;;;;;0.50;0.50;;;;;;;4.17;100.00;100928.19;5052025;28;20270;-61
2023/01/01 01:29:36;;;;;;;0.60;0.60;;;;;;;4.24;100.00;100940.19;5052066;28;20205;-61
2023/01/01 01:32:03;;;;;;;0.50;0.50;;;;;;;4.29;100.00;100940.28;5052047;28;20212;-61
2023/01/01 01:34:31;;;;;;;0.60;0.60;;;;;;;4.27;100.00;100949.53;5051600;28;20266;-61
2023/01/01 01:36:58;;;;;;;0.80;0.80;;;;;;;4.07;100.00;100934.75;5052354;28;20212;-61
2023/01/01 01:39:24;;;;;;;0.60;0.60;;;;;;;4.00;100.00;100935.50;5051650;28;20664;-61
2023/01/01 01:41:51;;;;;;;1.10;1.10;;;;;;;3.98;100.00;100932.03;5051802;28;20201;-61
2023/01/01 01:44:51;;;;;;;0.70;0.70;;;;;;;3.91;100.00;100929.38;5051538;28;20212;-61
2023/01/01 01:47:22;;;;;;;0.60;0.60;;;;;;;3.80;100.00;100926.59;5048536;28;20258;-61
2023/01/01 01:49:55;;;;;;;0.40;0.40;;;;;;;3.67;100.00;100937.28;5051093;28;20200;-61
2023/01/01 01:52:22;;;;;;;0.60;0.60;;;;;;;3.58;100.00;100932.88;5051534;28;20200;-61
2023/01/01 01:54:49;;;;;;;0.60;0.60;;;;;;;3.56;100.00;100931.09;5051305;28;20208;-61
2023/01/01 01:57:16;;;;;;;0.73;0.73;;;;;;;3.51;100.00;100928.50;5051010;28;20620;-61
2023/01/01 01:59:48;;;;;;;0.67;0.67;;;;;;;3.45;100.00;100937.63;5051471;28;20669;-61
2023/01/01 02:02:22;;;;;;;1.23;1.10;;;;;;;3.40;100.00;100939.19;5051717;28;20208;-61
2023/01/01 02:04:51;;;;;;;0.50;0.50;;;;;;;3.43;100.00;100954.47;5051014;28;20258;-61
2023/01/01 02:07:18;;;;;;;0.90;0.90;;;;;;;3.43;100.00;100945.19;5051270;28;20805;-61
2023/01/01 02:09:45;;;;;;;0.60;0.60;;;;;;;3.45;100.00;100945.25;5051030;28;20676;-61
2023/01/01 02:12:12;;;;;;;0.60;0.60;;;;;;;3.47;100.00;100941.06;5051196;28;20197;-61
2023/01/01 02:14:39;;;;;;;0.70;0.70;;;;;;;3.49;100.00;100939.44;5050459;28;20199;-61
2023/01/01 02:17:14;;;;;;;1.13;1.03;;;;;;;3.25;100.00;100923.63;5051131;28;20205;-61
2023/01/01 02:19:54;;;;;;;0.50;0.50;;;;;;;3.45;100.00;100937.63;5050875;28;20192;-61
2023/01/01 02:22:32;;;;;;;0.57;0.57;;;;;;;3.49;100.00;100934.34;5051006;28;20212;-61
2023/01/01 02:25:11;;;;;;;0.80;0.80;;;;;;;3.51;100.00;100940.31;5050958;28;20698;-61
2023/01/01 02:27:51;;;;;;;1.00;1.00;;;;;;;3.55;100.00;100937.03;5050725;28;20211;-61
2023/01/01 02:30:20;;;;;;;0.70;0.70;;;;;;;3.57;100.00;100927.75;5051111;28;20634;-61
2023/01/01 02:32:51;;;;;;;0.70;0.70;;;;;;;3.60;100.00;100933.75;5050621;28;20247;-61
2023/01/01 02:35:37;;;;;;;0.70;0.70;;;;;;;3.58;100.00;100934.56;5051168;28;20250;-61
2023/01/01 02:38:09;;;;;;;0.53;0.53;;;;;;;3.56;100.00;100937.03;5050656;28;20200;-61
2023/01/01 02:40:41;;;;;;;0.77;0.77;;;;;;;3.52;100.00;100942.03;5050386;28;20200;-61
2023/01/01 02:43:08;;;;;;;0.50;0.50;;;;;;;3.50;100.00;100941.97;5049500;28;20258;-61
2023/01/01 02:45:37;;;;;;;1.60;1.00;;;;;;;3.46;100.00;100949.47;5050395;28;20573;-61
2023/01/01 02:48:05;;;;;;;0.80;0.80;;;;;;;3.41;100.00;100945.97;5050672;28;20193;-61
2023/01/01 02:50:33;;;;;;;0.60;0.60;;;;;;;3.39;100.00;100938.34;5050560;28;20209;-61
2023/01/01 02:53:08;;;;;;;1.00;1.00;;;;;;;3.33;100.00;100947.50;5049965;28;20197;-61
2023/01/01 02:55:48;;;;;;;1.20;1.20;;;;;;;3.22;100.00;100931.16;5050352;28;20204;-61
2023/01/01 03:01:16;;;;;;;0.70;0.70;;;;;;;3.29;100.00;100941.50;5049537;28;20755;-61
2023/01/01 03:03:53;;;;;;;0.50;0.50;;;;;;;3.34;100.00;100929.78;5050089;28;20228;-61
2023/01/01 03:06:28;;;;;;;0.90;0.90;;;;;;;3.38;100.00;100933.25;5050230;28;20635;-61
2023/01/01 03:09:07;;;;;;;1.07;1.07;;;;;;;3.40;100.00;100934.13;5050033;28;20258;-60
2023/01/01 03:11:41;;;;;;;0.60;0.60;;;;;;;3.39;100.00;100940.03;5047575;28;20201;-61
2023/01/01 03:14:16;;;;;;;1.13;1.13;;;;;;;3.33;100.00;100935.66;5050244;28;20669;-61
2023/01/01 03:16:49;;;;;;;0.50;0.50;;;;;;;3.21;100.00;100926.91;5050439;28;20192;-61
2023/01/01 03:19:19;;;;;;;0.70;0.70;;;;;;;3.22;100.00;100938.78;5050097;28;20200;-61
2023/01/01 03:21:51;;;;;;;0.70;0.70;;;;;;;3.20;100.00;100942.94;5050529;28;20196;-61
2023/01/01 03:24:23;;;;;;;0.70;0.70;;;;;;;3.18;100.00;100938.69;5050043;28;20216;-61
2023/01/01 03:26:54;;;;;;;0.60;0.60;;;;;;;3.22;100.00;100933.69;5050110;28;20200;-61
2023/01/01 03:29:23;;;;;;;0.60;0.60;;;;;;;3.26;100.00;100940.56;5049857;28;20266;-61
2023/01/01 03:31:55;;;;;;;0.60;0.60;;;;;;;3.24;100.00;100932.03;5050647;28;20219;-61
2023/01/01 03:34:27;;;;;;;0.63;0.63;;;;;;;3.25;100.00;100938.84;5049948;28;20684;-61
2023/01/01 03:36:59;;;;;;;0.63;0.63;;;;;;;3.21;100.00;100937.03;5046398;28;20576;-61
2023/01/01 03:39:30;;;;;;;0.80;0.80;;;;;;;3.25;100.00;100949.84;5050136;28;20676;-61
2023/01/01 03:42:08;;;;;;;0.57;0.57;;;;;;;3.25;100.00;100943.91;5050527;28;20200;-61
2023/01/01 03:44:41;;;;;;;0.60;0.60;;;;;;;3.12;100.00;100946.16;5050019;28;20225;-61
2023/01/01 03:47:10;;;;;;;0.60;0.60;;;;;;;3.10;100.00;100955.38;5050449;28;20561;-61
2023/01/01 03:49:37;;;;;;;0.50;0.50;;;;;;;3.14;100.00;100952.09;5049799;28;20246;-61
2023/01/01 03:52:21;;;;;;;0.67;0.67;;;;;;;3.09;100.00;100938.47;5050067;28;20193;-61
2023/01/01 03:54:53;;;;;;;0.60;0.60;;;;;;;3.07;100.00;100935.03;5050089;28;20201;-61
2023/01/01 03:57:24;;;;;;;0.57;0.57;;;;;;;3.16;100.00;100954.69;5049677;28;20200;-61
2023/01/01 03:59:57;;;;;;;0.90;0.90;;;;;;;3.17;100.00;100959.78;5049560;28;20620;-61
2023/01/01 04:02:35;;;;;;;0.50;0.50;;;;;;;3.00;100.00;100938.25;5049253;28;20623;-61
2023/01/01 04:05:06;;;;;;;0.60;0.60;;;;;;;3.11;100.00;100954.56;5049826;28;20258;-61
2023/01/01 04:07:33;;;;;;;0.70;0.70;;;;;;;3.14;100.00;100952.09;5049286;28;20201;-61
2023/01/01 04:10:15;;;;;;;1.40;1.33;;;;;;;3.15;100.00;100958.03;5049986;28;20683;-61
2023/01/01 04:12:44;;;;;;;1.60;1.50;;;;;;;3.08;100.00;100957.03;5052412;28;20197;-63
2023/01/01 04:15:11;;;;;;;0.50;0.50;;;;;;;3.02;100.00;100951.81;5053665;28;20193;-61
2023/01/01 04:17:39;;;;;;;0.60;0.60;;;;;;;3.02;100.00;100956.88;5053029;28;20204;-61
2023/01/01 04:20:08;;;;;;;1.23;1.23;;;;;;;2.97;100.00;100950.81;5053475;28;20204;-61
2023/01/01 04:22:34;;;;;;;1.00;1.00;;;;;;;2.98;100.00;100950.00;5053196;28;20197;-61
2023/01/01 04:25:01;;;;;;;0.50;0.50;;;;;;;2.99;100.00;100955.94;5052997;28;20266;-61
2023/01/01 04:27:28;;;;;;;0.60;0.60;;;;;;;3.00;100.00;100957.66;5053101;28;20204;-60
2023/01/01 04:29:55;;;;;;;0.60;0.60;;;;;;;2.99;100.00;100961.00;5053157;28;20201;-61
2023/01/01 04:32:22;;;;;;;0.63;0.63;;;;;;;2.98;100.00;100957.63;5053224;28;20660;-60
2023/01/01 04:34:50;;;;;;;0.63;0.63;;;;;;;3.00;100.00;100958.53;5052992;28;20200;-61
2023/01/01 04:37:17;;;;;;;0.57;0.57;;;;;;;3.00;100.00;100968.66;5053177;28;20227;-61
2023/01/01 04:39:44;;;;;;;0.77;0.77;;;;;;;2.93;100.00;100951.59;5052716;28;20201;-61
2023/01/01 04:42:10;;;;;;;0.70;0.70;;;;;;;2.99;100.00;100951.75;5053141;28;20197;-61
2023/01/01 04:44:37;;;;;;;0.50;0.50;;;;;;;2.99;100.00;100946.66;5052537;28;20731;-61
2023/01/01 04:47:04;;;;;;;0.63;0.63;;;;;;;3.00;100.00;100953.47;5052441;28;20558;-61
2023/01/01 04:49:31;;;;;;;0.60;0.60;;;;;;;3.01;100.00;100959.34;5052497;28;20211;-60
2023/01/01 04:51:59;;;;;;;0.97;0.97;;;;;;;2.99;100.00;100946.66;5052588;28;20711;-61
2023/01/01 04:54:26;;;;;;;0.70;0.70;;;;;;;3.01;100.00;100956.81;5052604;28;20204;-61
2023/01/01 04:56:53;;;;;;;1.50;1.50;;;;;;;2.99;100.00;100953.41;5051141;28;20683;-60
2023/01/01 04:59:19;;;;;;;1.13;1.13;;;;;;;2.99;100.00;100956.81;5052196;28;20208;-61
2023/01/01 05:01:46;;;;;;;0.50;0.50;;;;;;;2.88;100.00;100943.00;5052519;28;20255;-61
2023/01/01 05:04:15;;;;;;;0.60;0.60;;;;;;;2.99;100.00;100961.88;5052130;28;20233;-60
2023/01/01 05:06:44;;;;;;;0.80;0.80;;;;;;;2.92;100.00;100954.94;5052709;28;20200;-62
2023/01/01 05:09:12;;;;;;;0.60;0.60;;;;;;;2.87;100.00;100966.63;5052461;28;20287;-61
2023/01/01 05:11:39;;;;;;;0.70;0.70;;;;;;;2.78;100.00;100961.31;5052683;28;20207;-60
2023/01/01 05:14:07;;;;;;;0.63;0.63;;;;;;;2.79;100.00;100967.22;5052258;28;20691;-61
2023/01/01 05:16:36;;;;;;;0.80;0.80;;;;;;;2.63;100.00;100940.66;5052496;28;20193;-61
2023/01/01 05:19:03;;;;;;;0.93;0.93;;;;;;;2.75;100.00;100963.75;5051983;28;20657;-61
2023/01/01 05:21:32;;;;;;;0.60;0.60;;;;;;;2.76;100.00;100973.09;5052329;28;20192;-61
2023/01/01 05:24:01;;;;;;;0.53;0.53;;;;;;;2.62;100.00;100984.50;5051950;28;20251;-61
2023/01/01 05:26:31;;;;;;;0.60;0.60;;;;;;;2.61;100.00;100982.81;5052386;28;20211;-61
2023/01/01 05:28:58;;;;;;;1.30;1.30;;;;;;;2.49;100.00;100982.44;5051966;28;20281;-60
2023/01/01 05:31:26;;;;;;;0.57;0.57;;;;;;;2.47;100.00;100977.38;5052029;28;20193;-61
2023/01/01 05:33:54;;;;;;;0.70;0.70;;;;;;;2.42;100.00;100978.94;5051872;28;20201;-61
2023/01/01 05:36:23;;;;;;;1.17;1.07;;;;;;;2.49;100.00;100982.44;5051575;28;20204;-61
2023/01/01 05:38:50;;;;;;;0.70;0.70;;;;;;;2.42;100.00;100971.34;5052181;28;20673;-59
2023/01/01 05:41:18;;;;;;;0.50;0.50;;;;;;;2.48;100.00;100968.09;5052000;28;20200;-61
2023/01/01 05:43:47;;;;;;;0.60;0.60;;;;;;;2.55;100.00;100992.78;5051949;28;20200;-61
2023/01/01 05:46:15;;;;;;;0.50;0.50;;;;;;;2.45;100.00;100971.41;5051309;28;20216;-60
2023/01/01 05:48:42;;;;;;;0.70;0.70;;;;;;;2.57;100.00;100992.00;5051840;28;20549;-61
2023/01/01 05:51:11;;;;;;;0.70;0.70;;;;;;;2.54;100.00;100973.31;5050873;28;20205;-60
2023/01/01 05:53:38;;;;;;;1.73;1.73;;;;;;;2.60;100.00;100986.16;5051216;28;20250;-60
2023/01/01 05:56:06;;;;;;;0.50;0.50;;;;;;;2.56;100.00;100974.22;5051438;28;20212;-60
2023/01/01 05:58:34;;;;;;;0.60;0.60;;;;;;;2.63;100.00;100987.09;5051447;28;20197;-61
2023/01/01 06:01:07;;;;;;;0.60;0.60;;;;;;;2.64;100.00;100993.00;5051251;28;20250;-60
2023/01/01 06:03:34;;;;;;;0.70;0.70;;;;;;;2.61;100.00;100983.66;5051280;28;20228;-60
2023/01/01 06:06:04;;;;;;;0.60;0.60;;;;;;;2.66;100.00;100991.38;5051325;28;20262;-61
2023/01/01 06:08:31;;;;;;;0.80;0.80;;;;;;;2.66;100.00;100991.38;5051245;28;20251;-60
2023/01/01 06:10:59;;;;;;;1.70;1.70;;;;;;;2.68;100.00;100994.81;5051167;28;20197;-61
2023/01/01 06:13:26;;;;;;;0.63;0.63;;;;;;;2.67;100.00;100992.22;5050729;28;20201;-60
2023/01/01 06:15:54;;;;;;;0.60;0.60;;;;;;;2.67;100.00;100990.56;5051259;28;20251;-61
2023/01/01 06:18:23;;;;;;;1.07;1.07;;;;;;;2.69;100.00;100996.50;5050663;28;20196;-60
2023/01/01 06:20:50;;;;;;;0.50;0.50;;;;;;;2.68;100.00;100994.81;5051325;28;20193;-61
2023/01/01 06:23:17;;;;;;;0.80;0.80;;;;;;;2.67;100.00;100988.03;5050615;28;20657;-63
2023/01/01 06:25:44;;;;;;;1.10;1.10;;;;;;;2.65;100.00;100987.13;5050863;28;20219;-61
2023/01/01 06:28:11;;;;;;;0.63;0.63;;;;;;;2.53;100.00;100981.72;5050795;28;20680;-61
2023/01/01 06:30:38;;;;;;;0.70;0.70;;;;;;;2.57;100.00;100981.88;5050772;28;20668;-61
2023/01/01 06:33:05;;;;;;;0.80;0.80;;;;;;;2.54;100.00;100985.97;5050983;28;20631;-61
2023/01/01 06:35:33;;;;;;;1.00;1.00;;;;;;;2.48;100.00;100991.75;5050124;28;20219;-61
2023/01/01 06:38:00;;;;;;;0.87;0.87;;;;;;;2.43;100.00;100982.28;5050691;28;20668;-61
2023/01/01 06:40:27;;;;;;;0.77;0.77;;;;;;;2.48;100.00;100991.75;5050337;28;20212;-60
2023/01/01 06:42:54;;;;;;;0.70;0.70;;;;;;;2.51;100.00;101001.09;5050666;28;20201;-60
2023/01/01 06:45:20;;;;;;;0.60;0.60;;;;;;;2.54;100.00;101002.03;5050204;28;20281;-60
2023/01/01 06:47:47;;;;;;;0.63;0.63;;;;;;;2.56;100.00;101004.59;5050831;28;20287;-62
2023/01/01 06:50:14;;;;;;;0.60;0.60;;;;;;;2.57;100.00;101011.38;5050578;28;20288;-61
2023/01/01 06:52:42;;;;;;;1.07;1.07;;;;;;;2.60;100.00;101008.94;5050144;28;20542;-60
2023/01/01 06:55:09;;;;;;;0.77;0.77;;;;;;;2.62;100.00;101014.88;5050738;28;20216;-61
2023/01/01 06:57:36;;;;;;;0.90;0.90;;;;;;;2.65;100.00;101009.91;5050491;28;20207;-61
2023/01/01 07:00:03;;;;;;;0.83;0.83;;;;;;;2.71;100.00;101005.03;5050278;28;20205;-60
2023/01/01 07:02:30;;;;;;;1.20;1.20;;;;;;;2.61;100.00;100977.75;5050857;28;20562;-60
2023/01/01 07:04:57;;;;;;;1.00;1.00;;;;;;;2.76;100.00;101013.59;5049931;28;20639;-60
2023/01/01 07:07:23;;;;;;;0.50;0.50;;;;;;;2.80;100.00;101005.28;5050302;28;20643;-61
2023/01/01 07:09:52;;;;;;;0.53;0.53;;;;;;;2.85;100.00;101006.25;5049962;28;20204;-60
2023/01/01 07:12:18;;;;;;;0.60;0.60;;;;;;;2.84;100.00;101002.00;5050651;28;20200;-61
2023/01/01 07:14:45;;;;;;;0.50;0.50;;;;;;;2.94;100.00;101003.94;5050490;28;20200;-61
2023/01/01 07:17:12;;;;;;;1.00;1.00;;;;;;;2.93;100.00;101002.25;5050304;28;20205;-61
2023/01/01 07:19:38;;;;;;;0.60;0.60;;;;;;;3.02;100.00;101007.53;5050688;28;20691;-61
2023/01/01 07:22:05;;;;;;;0.70;0.70;;;;;;;3.05;100.00;101011.81;5050339;28;20200;-61
2023/01/01 07:24:32;;;;;;;0.60;0.60;;;;;;;3.09;100.00;101006.03;5050952;28;20209;-61
2023/01/01 07:27:00;;;;;;;2.27;1.13;;;;;;;3.10;100.00;101015.34;5049733;28;20223;-60
2023/01/01 07:29:27;;;;;;;1.03;1.03;;;;;;;3.03;100.00;100989.00;5050430;28;20690;-60
2023/01/01 07:31:54;;;;;;;0.70;0.70;;;;;;;3.20;100.00;101016.44;5050017;28;20216;-60
2023/01/01 07:34:22;;;;;;;0.60;0.60;;;;;;;3.22;100.00;101009.72;5044889;28;20196;-60
2023/01/01 07:36:49;;;;;;;0.90;0.90;;;;;;;3.20;100.00;100999.53;5049838;28;20243;-60
2023/01/01 07:39:16;;;;;;;0.60;0.60;;;;;;;3.29;100.00;101011.59;5050268;28;20215;-60
2023/01/01 07:41:43;;;;;;;0.60;0.60;;;;;;;3.27;100.00;101003.94;5050239;28;20201;-60
2023/01/01 07:44:11;;;;;;;0.80;0.80;;;;;;;3.39;100.00;101018.63;5049627;28;20201;-60
2023/01/01 07:46:38;;;;;;;0.60;0.60;;;;;;;3.44;100.00;101022.97;5051373;28;20219;-60
2023/01/01 07:49:04;;;;;;;0.50;0.50;;;;;;;3.47;100.00;101035.72;5053758;28;20581;-60
2023/01/01 07:51:31;;;;;;;0.60;0.60;;;;;;;3.52;100.00;101034.13;5053363;28;20197;-61
2023/01/01 07:53:58;;;;;;;0.50;0.50;;;;;;;3.60;100.00;101034.34;5053683;28;20683;-61
2023/01/01 07:56:25;;;;;;;0.70;0.70;;;;;;;3.72;100.00;101039.69;5053451;28;20227;-61
2023/01/01 07:58:52;;;;;;;0.50;0.50;;;;;;;3.80;100.00;101043.28;5053781;28;20201;-61
2023/01/01 08:01:20;;;;;;;0.60;0.60;;;;;;;3.87;100.00;101039.19;5053539;28;20206;-60
2023/01/01 08:03:52;;;;;;;0.50;0.50;;;;;;;3.96;100.00;101040.25;5053611;28;20278;-60
2023/01/01 08:06:21;;;;;;;0.67;0.67;;;;;;;3.98;100.00;101023.38;5053658;28;20209;-60
2023/01/01 08:08:47;;;;;;;0.60;0.60;;;;;;;4.19;100.00;101043.31;5053522;28;20224;-61
2023/01/01 08:11:14;;;;;;;0.63;0.63;;;;;;;4.34;100.00;101042.78;5052700;28;20201;-60
2023/01/01 08:13:41;;;;;;;0.70;0.70;;;;;;;4.46;100.00;101043.03;5053471;28;20201;-61
2023/01/01 08:16:08;;;;;;;2.40;2.30;;;;;;;4.43;100.00;101023.50;5053180;28;20199;-61
2023/01/01 08:18:36;;;;;;;0.60;0.60;;;;;;;4.59;100.00;101022.13;5053029;28;20208;-61
2023/01/01 08:21:04;;;;;;;0.60;0.60;;;;;;;4.80;100.00;101045.41;5053686;28;20197;-61
2023/01/01 08:23:31;;;;;;;0.70;0.70;;;;;;;4.92;100.00;101045.66;5053246;28;20664;-61
2023/01/01 08:25:59;;;;;;;0.63;0.63;;;;;;;5.06;100.00;101051.84;5053352;28;20208;-61
2023/01/01 08:28:26;;;;;;;1.27;1.27;;;;;;;5.05;100.00;101037.41;5052836;28;20258;-60
2023/01/01 08:30:53;;;;;;;0.60;0.60;;;;;;;5.22;100.00;101051.31;5053413;28;20197;-61
2023/01/01 08:33:21;;;;;;;0.67;0.67;;;;;;;5.34;100.00;101053.19;5052847;28;20204;-60
2023/01/01 08:35:50;;;;;;;0.53;0.53;;;;;;;5.40;100.00;101040.56;5053449;28;20284;-60
2023/01/01 08:38:16;;;;;;;0.63;0.63;;;;;;;5.61;100.00;101048.56;5052910;28;20201;-61
2023/01/01 08:40:43;;;;;;;0.50;0.50;;;;;;;5.68;100.00;101035.13;5052963;28;20219;-61
2023/01/01 08:43:10;;;;;;;1.63;1.57;;;;;;;5.93;100.00;101044.00;5052939;28;20562;-61
2023/01/01 08:45:37;;;;;;;0.50;0.50;;;;;;;6.07;100.00;101037.44;5052177;28;20216;-60
2023/01/01 08:48:04;;;;;;;0.70;0.70;;;;;;;6.23;100.00;101039.38;5052824;28;20201;-61
2023/01/01 08:50:31;;;;;;;0.60;0.60;;;;;;;6.39;100.00;101042.09;5052375;28;20197;-61
2023/01/01 08:52:59;;;;;;;0.50;0.50;;;;;;;6.55;100.00;101031.25;5052969;28;20684;-60
2023/01/01 08:55:26;;;;;;;0.70;0.70;;;;;;;6.73;100.00;101026.38;5052782;28;20574;-61
2023/01/01 08:57:53;;;;;;;0.57;0.57;;;;;;;6.85;100.00;101032.47;5052219;28;20213;-61
2023/01/01 09:00:19;;;;;;;0.60;0.60;;;;;;;6.98;100.00;101023.25;5052275;28;20209;-60
2023/01/01 09:02:46;;;;;;;0.60;0.60;;;;;;;7.18;100.00;101028.53;5052528;28;20200;-61
2023/01/01 09:05:13;;;;;;;0.60;0.60;;;;;;;7.32;100.00;101027.84;5052264;28;20285;-61
2023/01/01 09:07:40;;;;;;;0.90;0.90;;;;;;;7.50;100.00;101034.78;5052039;28;20207;-61
2023/01/01 09:10:09;;;;;;;0.40;0.40;;;;;;;7.63;100.00;101030.63;5052374;28;20205;-61
2023/01/01 09:12:35;;;;;;;1.33;1.33;;;;;;;7.85;100.00;101022.31;5052033;28;20204;-61
2023/01/01 09:15:02;;;;;;;1.10;1.10;;;;;;;7.92;100.00;101018.94;5052090;28;20200;-61
2023/01/01 09:17:29;;;;;;;0.60;0.60;;;;;;;8.03;100.00;101019.88;5052421;28;20193;-61
2023/01/01 09:19:55;;;;;;;0.70;0.70;;;;;;;8.18;100.00;101011.41;5052089;28;20618;-61
2023/01/01 09:22:22;;;;;;;0.50;0.50;;;;;;;8.36;100.00;101012.41;5052369;28;20197;-60
2023/01/01 09:24:49;;;;;;;0.53;0.53;;;;;;;8.46;100.00;101004.78;5051739;28;20230;-61
2023/01/01 09:27:17;;;;;;;0.50;0.50;;;;;;;8.37;100.00;100986.00;5051974;28;20781;-61
2023/01/01 09:29:44;;;;;;;0.73;0.73;;;;;;;8.63;100.00;101000.56;5051692;28;20197;-60
2023/01/01 09:32:10;;;;;;;0.60;0.60;;;;;;;8.78;100.00;100995.53;5051871;28;20250;-61
2023/01/01 09:34:37;;;;;;;0.60;0.60;;;;;;;8.82;100.00;100987.00;5051814;28;20197;-60
2023/01/01 09:37:04;;;;;;;0.60;0.60;;;;;;;8.93;100.00;100986.16;5051771;28;20683;-60
2023/01/01 09:39:31;;;;;;;0.50;0.50;;;;;;;9.08;100.00;100985.31;5051788;28;20192;-61
2023/01/01 09:42:09;;;;;;;0.90;0.90;;;;;;;9.17;100.00;100985.34;5051460;28;20209;-61
2023/01/01 09:45:06;;;;;;;0.40;0.40;;;;;;;9.37;100.00;100983.63;5051700;28;20201;-61
2023/01/01 09:47:39;;;;;;;0.50;0.50;;;;;;;9.59;100.00;100970.84;5046619;28;20216;-61
2023/01/01 09:50:11;;;;;;;0.50;0.50;;;;;;;9.67;100.00;100972.53;5050846;28;20749;-61
2023/01/01 09:52:50;;;;;;;0.80;0.80;;;;;;;9.72;100.00;100969.97;5051470;28;20205;-61
2023/01/01 09:55:24;;;;;;;0.50;0.50;;;;;;;9.88;100.00;100976.78;5051268;28;20200;-61
2023/01/01 09:57:51;;;;;;;0.50;0.50;;;;;;;10.10;100.00;100968.16;5051191;28;20200;-61
2023/01/01 10:00:20;;;;;;;0.40;0.40;;;;;;;10.20;98.93;100972.44;5050639;28;20207;-61
2023/01/01 10:03:17;;;;;;;0.40;0.40;;;;;;;10.25;97.91;100973.25;5051012;28;20763;-61
2023/01/01 10:05:53;;;;;;;0.70;0.70;;;;;;;10.33;96.06;100966.41;5049758;28;20200;-61
2023/01/01 10:08:34;;;;;;;0.53;0.53;;;;;;;10.32;95.12;100964.69;5051187;28;20636;-61
2023/01/01 10:11:09;;;;;;;0.87;0.87;;;;;;;10.38;95.56;100962.09;5050576;28;20208;-60
2023/01/01 10:13:40;;;;;;;0.50;0.50;;;;;;;10.45;96.47;100961.22;5051450;28;20200;-61
2023/01/01 10:16:17;;;;;;;1.00;1.00;;;;;;;10.58;94.82;100962.00;5050082;28;20204;-60
2023/01/01 10:18:48;;;;;;;3.63;1.60;;;;;;;10.61;94.37;100962.00;5051403;28;20278;-61
2023/01/01 10:21:17;;;;;;;1.00;1.00;;;;;;;10.70;94.11;100955.94;5050993;28;20278;-61
2023/01/01 10:23:48;;;;;;;2.17;2.10;;;;;;;10.70;93.52;100941.41;5051257;28;20201;-61
2023/01/01 10:26:18;;;;;;;1.47;1.47;;;;;;;10.88;92.89;100956.72;5050859;28;20216;-61
2023/01/01 10:28:56;;;;;;;0.73;0.73;;;;;;;10.98;92.50;100953.22;5051092;28;20696;-61
2023/01/01 10:31:32;;;;;;;0.63;0.63;;;;;;;11.05;92.97;100956.56;5049655;28;20250;-61
2023/01/01 10:34:01;;;;;;;0.50;0.50;;;;;;;11.12;93.11;100949.66;5050877;28;20199;-61
2023/01/01 10:36:28;;;;;;;0.60;0.60;;;;;;;11.15;92.60;100937.66;5050991;28;20631;-61
2023/01/01 10:38:54;;;;;;;0.43;0.43;;;;;;;11.21;92.74;100934.22;5050812;28;20254;-61
2023/01/01 10:41:21;;;;;;;0.87;0.87;;;;;;;11.27;93.54;100929.88;5050842;28;20673;-61
2023/01/01 10:43:49;;;;;;;0.70;0.70;;;;;;;11.41;92.85;100933.16;5049712;28;20200;-61
2023/01/01 10:46:20;;;;;;;0.30;0.30;;;;;;;11.50;92.11;100927.94;5050408;28;20239;-61
2023/01/01 10:49:10;;;;;;;0.50;0.50;;;;;;;11.53;92.34;100922.75;5051077;28;20196;-61
2023/01/01 10:51:42;;;;;;;0.90;0.90;;;;;;;11.67;92.41;100914.94;5047351;28;21011;-64
2023/01/01 10:54:29;;;;;;;0.70;0.70;;;;;;;11.89;91.11;100925.88;5046815;28;20696;-63
2023/01/01 10:56:56;;;;;;;0.50;0.50;;;;;;;11.99;90.33;100917.16;5048072;28;20246;-64
2023/01/01 10:59:37;;;;;;;1.53;1.43;;;;;;;12.05;89.71;100922.25;5049031;28;20204;-64
2023/01/01 11:02:20;;;;;;;1.00;1.00;;;;;;;12.04;88.58;100917.97;5050188;28;20201;-64
2023/01/01 11:04:49;;;;;;;0.53;0.53;;;;;;;12.12;89.06;100913.59;5050044;28;20277;-64
2023/01/01 11:07:28;;;;;;;0.50;0.50;;;;;;;12.19;88.12;100914.34;5050354;28;20219;-64
2023/01/01 11:10:00;;;;;;;1.13;1.13;;;;;;;12.28;87.96;100911.69;5049587;28;20227;-64
2023/01/01 11:12:31;;;;;;;0.40;0.40;;;;;;;12.27;86.96;100897.97;5049042;28;20200;-64
2023/01/01 11:14:59;;;;;;;0.60;0.60;;;;;;;12.42;85.16;100913.19;5049720;28;20687;-64
2023/01/01 11:17:27;;;;;;;0.73;0.73;;;;;;;12.43;84.63;100909.78;5046406;28;20917;-64
2023/01/01 11:19:57;;;;;;;0.40;0.40;;;;;;;12.50;85.66;100911.34;5041728;28;20270;-64
2023/01/01 11:22:41;;;;;;;0.70;0.70;;;;;;;12.61;85.51;100904.34;5052118;28;20216;-64
2023/01/01 11:25:20;;;;;;;0.80;0.80;;;;;;;12.70;84.59;100908.50;5044678;28;20208;-64
2023/01/01 11:27:48;;;;;;;0.60;0.60;;;;;;;12.74;83.81;100899.88;5044437;28;20220;-65
2023/01/01 11:30:21;;;;;;;0.40;0.40;;;;;;;12.80;83.70;100893.78;5047178;28;20258;-65
2023/01/01 11:32:49;;;;;;;0.40;0.40;;;;;;;12.86;83.77;100894.53;5051733;28;20212;-65
2023/01/01 11:35:22;;;;;;;0.40;0.40;;;;;;;12.91;84.15;100891.88;5048305;28;20209;-65
2023/01/01 11:37:50;;;;;;;0.60;0.60;;;;;;;12.91;83.48;100884.16;5050728;28;20206;-65